Weather forecast for Mishelevka (Мишелевка)

Russia, 412 m
N52.890, E103.197


Sounding

Red line — air temperature ˚C.
Blue line — thermal bubble temperature ˚C.
Green line — dew point temperature ˚C.
Wind speed is in meters per second.

Table forecast

GFS 0.25˚ model

temp. wind gust humid. clouds prec. press. hpbl
Mon10 00:00 16 304.0 nw 6 12 73 0 0.0 1006 258
03:00 14 300.0 wnw 4 10 81 9 0.0 1007 218
06:00 15 301.0 wnw 5 10 71 90 0.0 1006 309
09:00 15 314.0 nw 5 9 78 94 0.0 1007 362
12:00 20 314.0 nw 4 6 69 99 0.0 1006 509
15:00 23 328.0 nnw 4 4 53 91 0.9 1005 1288
18:00 23 322.0 nw 4 5 54 100 0.0 1005 1033
21:00 19 303.0 wnw 4 6 75 95 0.0 1006 125
 
Tue11 00:00 16 314.0 nw 3 3 77 47 0.0 1007 33
03:00 14 278.0 w 2 3 81 63 0.0 1007 37
06:00 13 289.0 wnw 2 2 79 51 0.0 1006 23
09:00 16 278.0 w 2 2 75 26 0.0 1007 148
12:00 21 280.0 w 1 1 61 0 0.0 1006 473
15:00 25 67.0 ene 2 2 46 0 0.0 1005 1462
18:00 25 31.0 nne 2 3 44 64 0.0 1005 1683
21:00 20 28.0 nne 3 3 64 82 0.0 1006 34
 
Wed12 00:00 17 84.0 e 2 2 69 96 0.1 1007 23
03:00 14 126.0 se 3 3 84 98 1.8 1007 46
06:00 13 129.0 se 2 3 88 26 0.1 1006 32
09:00 15 131.0 se 2 4 84 13 0.1 1007 246
12:00 20 132.0 se 4 5 67 0 0.0 1005 664
15:00 24 146.0 se 3 3 53 0 0.0 1003 966
18:00 25 130.0 se 1 2 47 0 0.0 1002 1156
21:00 21 170.0 s 1 1 63 0 0.0 1003 23
 
Thu13 00:00 16 127.0 se 2 2 84 22 0.0 1004 23
03:00 14 135.0 se 2 3 90 11 0.0 1004 27
06:00 12 131.0 se 2 2 94 0 0.0 1004 28
09:00 15 148.0 sse 2 3 84 0 0.0 1004 186
12:00 22 156.0 sse 1 1 65 0 0.0 1002 454
15:00 25 335.0 nnw 2 2 51 0 0.0 1001 1025
18:00 26 350.0 n 3 5 49 0 0.0 1000 1512
21:00 21 355.0 n 2 2 69 0 0.0 1000 23
 
Fri14 00:00 18 300.0 wnw 2 2 73 2 0.0 1002 23
03:00 15 308.0 nw 2 3 86 51 0.0 1001 46
06:00 14 294.0 wnw 2 2 90 69 0.0 1002 27
09:00 17 286.0 wnw 2 3 81 83 0.0 1002 137
12:00 22 302.0 wnw 3 3 63 87 0.0 1001 568
15:00 25 335.0 nnw 3 3 50 44 0.0 1000 1401
18:00 25 335.0 nnw 4 4 51 98 0.0 1001 1823
21:00 20 282.0 wnw 4 8 73 99 0.1 1003 173
 

0.013 s